Decoded Metar for UAII (CHIMKENT in KAZAKHSTAN) (IATA:CIT) | Meteo·Mobile Aviation Weather
aviador You're here:

UAII Decoded Metar

CHIMKENT in KAZAKHSTAN
Report Time2019-07-23 02:00:00
UTC Time2019-07-23 02:36:51
Flight Rules vfr VFR
WindCalm
Visibility9999 m
Phenomena:N/A
Clouds:N/A
Expected CloudBase > 7,200 ft AGL from Temp-Dew spread
CeilingNone
Temp26°C (ISA +14)
Dew Point08°C (32% RH)
AAT25.5°C
QNH1006 hPa
Density Alt3,353 ft
Elevation1,385 ft
Report Wrong Elevation
Raw Report
UAII 230200Z 00000MPS CAVOK 26/08 Q1006 R28/0///70 NOSIG RMK
QFE718/0957=

Extra information for UAII:More info

Metar Taf Metar & Taf Last 4 Metars F.Rules Stats Wind Profile Meteogram Temp Stats Airport Information Weather charts Add Link Nearby VenuesMetar ALERT Operation Metar Decoded Social comments